Airfield :
LOGIN :

Register | Disclaimer

   EN    FR    IT 

 










Legend :    VFR   Marginal VFR   IFR   Intensive IFR   Very Intensive IFR
Visi :
Ceiling :
>= 8 km
>= 3000ft
5 to 8 km
1000 to 3000 ft
1500m to 5 km
500 to 1000 ft
800 to 1500m
200 to 500 ft
< 800m
< 200 ft
Symbols :   Thunderstorms  Fog  Heavy snow  Heavy precipitations  Wind > 20 kt
SIGMETs :     Misc.  Thunderstorms  Icing  Turbulence  Mountain Waves  Volcanic Ashes







- Airport Elevation : 29 ft
- IATA code : SVG


ENZV - Sola

CURRENT METAR :
  • 230450Z 24010KT CAVOK 06/02 Q1018

EXPIRED METARs :
  • 230350Z 26011KT 8000 FEW040 06/02 Q1018
  • 230320Z 24008KT 8000 FEW032 SCT044 06/03 Q1018
  • 230250Z 24009KT 8000 BKN032 BKN066 06/03 Q1017
  • 230220Z 24009KT 9999 FEW033 07/03 Q1017

TAF TAF ENZV
Valid from the 23 at 00:00 until the 24 at 00:00 UTC


2300/2324 25015KT 9999 FEW010 BKN040
BECMG 2306/2309 27022G35KT
TEMPO 2308/2324 SHRA BKN014CB
BECMG 2316/2318 29020KT
BECMG 2322/2324 23012KT
No reported NOTAMs for that airfield.
2 SIGMETs reported for the Norway FIR (ENOR) :
 
Severe turbulence
ENBD SIGMET D01 VALID 230300/230700 ENVN
ENOR NORWAY FIR SEV TURB FCST WI N6500 E01130 - N6645 E01250 - N6705 E01420 - N6500 E01235 - N6500 E01130 SFC/FL070 STNR NC=
Severe turbulence
ENBD SIGMET C02 VALID 230400/230800 ENVV
ENOR NORWAY FIR SEV TURB FCST WI N6200 E00500 - N6230 E00510 - N6500 E01130 - N6500 E01235 - N6320 E01100 - N6200 E00800 - N6200 E00500 SFC/FL080 STNR NC=



MET'MAP, your aeronautical weather chart ! - Copyright ORBIFLY December 2007 - Disclaimer

ORBIFLY MET'MAP TEAM :

Programming & Development : Alexandra Zaïnal
Concept & Development : Baudouin d'Aumeries
Co-Development & Prog : Marc-Olivier Méhu
Technical & hardware support : Manuel Goepfert

Contact : metmap@orbifly.com




SOURCES & CREDITS :

   NOAA